Airfield :
LOGIN :

Register | Disclaimer

   EN    FR    IT 

 










Legend :    VFR   Marginal VFR   IFR   Intensive IFR   Very Intensive IFR
Visi :
Ceiling :
>= 8 km
>= 3000ft
5 to 8 km
1000 to 3000 ft
1500m to 5 km
500 to 1000 ft
800 to 1500m
200 to 500 ft
< 800m
< 200 ft
Symbols :   Thunderstorms  Fog  Heavy snow  Heavy precipitations  Wind > 20 kt
SIGMETs :     Misc.  Thunderstorms  Icing  Turbulence  Mountain Waves  Volcanic Ashes







- Airport Elevation : 137 ft
- IATA code : ARN


ESSA - Stockholm-Arlanda

CURRENT METAR :
  • 131550Z 24008KT 9999 SCT008 BKN055 08/07 Q1014 R01L/29//95 R08/29//95 R01R/29//95 TEMPO BKN009

EXPIRED METARs :
  • 131520Z 19007KT 9999 FEW010 08/07 Q1013 R01L/29//95 R08/29//95 R01R/29//95 TEMPO BKN009
  • 131450Z 24007KT 9999 SCT007 BKN025 08/07 Q1013 R01L/29//95 R08/29//95 R01R/29//95 TEMPO SCT010
  • 131420Z 24008KT 9999 BKN007 08/07 Q1013 R01L/29//95 R08/29//95 R01R/29//95 TEMPO BKN010
  • 131350Z 24008KT 9999 BKN007 08/07 Q1013 R01L/29//95 R08/29//95 R01R/29//95 TEMPO BKN010
  • 131320Z 24008KT 9999 BKN008 08/07 Q1013 R01L/29//95 R08/29//95 R01R/29//95 TEMPO BKN009
  • 131250Z 22008KT 9999 BKN010 08/07 Q1013 R01L/29//95 R08/29//95 R01R/29//95 TEMPO BKN009

TAF AMD TAF ESSA
Valid from the 13 at 13:00 until the 14 at 12:00 UTC


131357Z 1313/1412 24004KT 6000 SCT005 BKN015
TEMPO 1313/1318 BKN006
TEMPO 1318/1406 1200 BCFG BKN004
TEMPO 1406/1412 BKN004
No reported NOTAMs for that airfield.



MET'MAP, your aeronautical weather chart ! - Copyright ORBIFLY December 2007 - Disclaimer

ORBIFLY MET'MAP TEAM :

Programming & Development : Alexandra Zaïnal
Concept & Development : Baudouin d'Aumeries
Co-Development & Prog : Marc-Olivier Méhu
Technical & hardware support : Manuel Goepfert

Contact : metmap@orbifly.com




SOURCES & CREDITS :

   NOAA